createdAt,value
2023-01-10T05:59:05.273Z,17.13
2023-01-10T06:04:09.616Z,17.70
2023-01-10T06:09:11.197Z,17.53
2023-01-10T06:14:12.890Z,16.80
2023-01-10T06:19:14.927Z,17.63
2023-01-10T06:24:16.625Z,17.43
2023-01-10T06:29:18.343Z,18.07
2023-01-10T06:34:20.049Z,17.80
2023-01-10T06:39:21.954Z,17.77
2023-01-10T06:44:23.639Z,17.37
2023-01-10T06:49:25.338Z,17.43
2023-01-10T06:54:27.324Z,17.83
2023-01-10T06:59:28.925Z,18.37
2023-01-10T07:04:30.601Z,18.10
2023-01-10T07:09:32.494Z,17.73
2023-01-10T07:14:34.223Z,18.37
2023-01-10T07:19:35.902Z,19.03
2023-01-10T07:24:37.604Z,19.93
2023-01-10T07:29:39.280Z,19.43
2023-01-10T07:34:40.909Z,19.73
2023-01-10T07:39:42.615Z,19.87
2023-01-10T07:44:44.276Z,20.07
2023-01-10T07:49:45.943Z,20.13
2023-01-10T07:54:47.611Z,19.97
2023-01-10T07:59:49.202Z,19.80
2023-01-10T08:04:50.775Z,19.13
2023-01-10T08:09:52.507Z,19.00
2023-01-10T08:14:54.441Z,21.63
2023-01-10T08:19:56.053Z,19.77
2023-01-10T08:24:57.692Z,19.13
2023-01-10T08:29:59.752Z,19.30
2023-01-10T08:35:01.350Z,19.23
2023-01-10T08:40:03.206Z,19.47
2023-01-10T08:45:05.375Z,19.03
2023-01-10T08:50:08.093Z,19.63
2023-01-10T08:55:10.272Z,19.33
2023-01-10T09:00:12.633Z,19.23
2023-01-10T09:05:26.237Z,18.93
2023-01-10T09:10:30.116Z,19.20
2023-01-10T09:15:36.846Z,19.20
2023-01-10T09:20:40.871Z,19.90
2023-01-10T09:25:42.552Z,19.43
2023-01-10T09:30:45.181Z,19.40
2023-01-10T09:35:46.824Z,19.53
2023-01-10T09:40:54.368Z,20.07
2023-01-10T09:45:55.887Z,19.17
2023-01-10T09:51:13.081Z,20.40
2023-01-10T09:56:16.790Z,20.60
2023-01-10T10:01:29.426Z,20.43
2023-01-10T10:06:34.455Z,19.60
2023-01-10T10:11:59.790Z,19.37
2023-01-10T10:17:29.719Z,18.90
2023-01-10T10:23:13.150Z,19.57
2023-01-10T10:28:23.556Z,18.93
2023-01-10T10:33:42.130Z,18.53
2023-01-10T10:38:46.570Z,17.53
2023-01-10T10:43:49.625Z,19.63
2023-01-10T10:48:59.855Z,18.57
2023-01-10T10:54:01.612Z,19.00
2023-01-10T10:59:04.875Z,19.90
2023-01-10T11:04:10.375Z,18.07
2023-01-10T11:09:14.751Z,19.67
2023-01-10T11:14:42.094Z,18.70
2023-01-10T11:19:56.117Z,20.20
2023-01-10T11:25:02.708Z,19.87
2023-01-10T11:30:09.348Z,18.80
2023-01-10T11:35:38.710Z,19.20
2023-01-10T11:40:57.537Z,19.57
2023-01-10T11:46:03.201Z,19.97
2023-01-10T11:51:05.011Z,20.03
2023-01-10T11:56:08.621Z,20.67
2023-01-10T12:01:27.213Z,20.40
2023-01-10T12:06:29.587Z,20.67
2023-01-10T12:11:33.173Z,21.40
2023-01-10T12:16:35.018Z,20.83
2023-01-10T12:21:45.369Z,20.60
2023-01-10T12:26:47.859Z,20.93
2023-01-10T12:31:52.102Z,20.73
2023-01-10T12:37:27.524Z,20.93
2023-01-10T12:43:19.698Z,21.23
2023-01-10T12:48:27.093Z,20.23
2023-01-10T12:53:40.274Z,19.33
2023-01-10T12:58:49.241Z,19.70
2023-01-10T13:03:56.606Z,19.77
2023-01-10T13:09:04.216Z,19.40
2023-01-10T13:14:08.095Z,19.10
2023-01-10T13:19:09.687Z,19.77
2023-01-10T13:24:24.003Z,19.33
2023-01-10T13:29:41.339Z,18.97
2023-01-10T13:34:43.542Z,18.80
2023-01-10T13:39:53.901Z,19.47
2023-01-10T13:45:03.095Z,21.57
2023-01-10T13:50:36.859Z,23.90
2023-01-10T13:55:46.579Z,23.97
2023-01-10T14:01:09.664Z,25.07
2023-01-10T14:06:30.089Z,25.90
2023-01-10T14:11:48.378Z,25.63
2023-01-10T14:16:57.331Z,26.13
2023-01-10T14:22:03.033Z,25.20
2023-01-10T14:27:07.066Z,26.20
2023-01-10T14:32:26.464Z,25.93
2023-01-10T14:37:45.122Z,26.30
2023-01-10T14:42:48.999Z,25.77
2023-01-10T14:47:52.965Z,26.23
2023-01-10T14:52:57.781Z,25.90
2023-01-10T14:58:01.847Z,26.20
2023-01-10T15:03:06.649Z,24.90
2023-01-10T15:08:22.605Z,24.87
2023-01-10T15:13:31.183Z,24.43
2023-01-10T15:18:48.306Z,24.20
2023-01-10T15:23:50.834Z,23.77
2023-01-10T15:29:14.041Z,23.27
2023-01-10T15:34:20.349Z,23.30
2023-01-10T15:39:29.456Z,23.30
2023-01-10T15:44:46.429Z,23.33
2023-01-10T15:49:54.422Z,22.03
2023-01-10T15:54:58.936Z,22.00
2023-01-10T16:00:01.298Z,22.63
2023-01-10T16:05:14.871Z,22.30
2023-01-10T16:10:30.542Z,23.03
2023-01-10T16:15:38.365Z,21.80
2023-01-10T16:20:46.566Z,21.93
2023-01-10T16:25:58.759Z,22.93
2023-01-10T16:31:01.715Z,23.30
2023-01-10T16:36:06.509Z,23.60
2023-01-10T16:41:34.109Z,22.67
2023-01-10T16:46:38.696Z,22.63
2023-01-10T16:51:40.919Z,23.10
2023-01-10T16:56:45.609Z,24.20
2023-01-10T17:01:54.975Z,22.80
2023-01-10T17:06:57.575Z,22.63
2023-01-10T17:12:08.466Z,23.27
2023-01-10T17:17:12.278Z,23.57
2023-01-10T17:22:14.990Z,23.33
2023-01-10T17:27:17.061Z,22.83
2023-01-10T17:32:18.955Z,23.33
2023-01-10T17:37:20.739Z,22.90
2023-01-10T17:42:25.242Z,23.10
2023-01-10T17:47:27.071Z,25.43
2023-01-10T17:52:28.872Z,25.37
2023-01-10T17:57:30.602Z,24.50
2023-01-10T18:02:32.661Z,24.13
2023-01-10T18:07:34.442Z,23.43
2023-01-10T18:12:37.199Z,25.43
2023-01-10T18:17:39.491Z,25.47
2023-01-10T18:23:00.177Z,23.67
2023-01-10T18:28:02.025Z,23.53
2023-01-10T18:33:03.737Z,23.27
2023-01-10T18:38:05.605Z,23.33
2023-01-10T18:43:07.294Z,24.30
2023-01-10T18:48:09.184Z,23.33
2023-01-10T18:53:10.796Z,22.90
2023-01-10T18:58:12.475Z,27.67
2023-01-10T19:03:14.121Z,28.73
2023-01-10T19:08:15.849Z,24.17
2023-01-10T19:13:17.517Z,22.97
2023-01-10T19:18:19.219Z,22.60
2023-01-10T19:23:20.944Z,22.60
2023-01-10T19:28:22.680Z,21.93
2023-01-10T19:33:24.577Z,24.43
2023-01-10T19:38:26.415Z,23.50
2023-01-10T19:43:28.513Z,23.40
2023-01-10T19:48:30.128Z,23.60
2023-01-10T19:53:34.342Z,25.10
2023-01-10T19:58:37.120Z,23.57
2023-01-10T20:03:41.115Z,23.63
2023-01-10T20:08:44.548Z,23.67
2023-01-10T20:13:48.217Z,22.40
2023-01-10T20:18:51.257Z,23.33
2023-01-10T20:23:52.912Z,23.37
2023-01-10T20:28:56.382Z,23.90
2023-01-10T20:33:58.465Z,23.93
2023-01-10T20:39:00.248Z,22.97
2023-01-10T20:44:02.032Z,23.40
2023-01-10T20:49:03.618Z,24.07
2023-01-10T20:54:08.197Z,26.47
2023-01-10T20:59:09.830Z,22.97
2023-01-10T21:04:11.539Z,23.30
2023-01-10T21:09:16.609Z,22.87
